Time;durP1;ratioP1;P1;durP2;ratioP2;P2;SDS_P1;SDS_P2;PMS_P1;PMS_P2;Temp;Humidity;BMP_temperature;BMP_pressure;BME280_temperature;BME280_humidity;BME280_pressure;Samples;Min_cycle;Max_cycle;Signal;HPM_P1;HPM_P2
2021/04/23 00:01:11;;;;;;;3.57;2.90;;;6.80;84.40;;;;;;5049388;28;20232;-67
2021/04/23 00:03:41;;;;;;;4.10;2.50;;;6.70;86.20;;;;;;5049748;28;20424;-67
2021/04/23 00:06:24;;;;;;;4.37;3.97;;;6.60;87.30;;;;;;5036039;28;20425;-67
2021/04/23 00:08:58;;;;;;;6.53;3.00;;;6.60;88.50;;;;;;5047095;28;20428;-67
2021/04/23 00:11:34;;;;;;;6.43;3.53;;;6.60;87.60;;;;;;5042686;28;20887;-67
2021/04/23 00:14:00;;;;;;;4.33;3.93;;;6.60;90.00;;;;;;5047054;28;21039;-67
2021/04/23 00:16:26;;;;;;;5.27;3.77;;;6.60;90.70;;;;;;5049471;28;20432;-67
2021/04/23 00:18:52;;;;;;;7.37;3.60;;;6.60;90.80;;;;;;5026873;28;20826;-67
2021/04/23 00:21:18;;;;;;;4.07;3.30;;;6.60;92.10;;;;;;5046370;28;20255;-67
2021/04/23 00:23:44;;;;;;;6.37;3.40;;;6.50;92.00;;;;;;5035198;28;20355;-67
2021/04/23 00:26:10;;;;;;;4.07;3.03;;;6.50;93.00;;;;;;5052058;28;20428;-67
2021/04/23 00:28:37;;;;;;;4.03;3.23;;;6.40;93.40;;;;;;5054056;28;20550;-67
2021/04/23 00:31:03;;;;;;;7.47;3.40;;;6.50;93.30;;;;;;5043645;28;20197;-67
2021/04/23 00:33:30;;;;;;;4.67;3.07;;;6.30;94.60;;;;;;5054029;28;20466;-67
2021/04/23 00:35:56;;;;;;;5.10;3.50;;;6.10;95.30;;;;;;5052006;28;20431;-67
2021/04/23 00:38:26;;;;;;;4.00;3.23;;;5.90;96.40;;;;;;5047965;28;20464;-67
2021/04/23 00:41:02;;;;;;;3.90;3.10;;;6.00;97.50;;;;;;5050513;28;20448;-67
2021/04/23 00:43:36;;;;;;;6.23;2.93;;;6.00;97.80;;;;;;5053369;28;20432;-67
2021/04/23 00:46:03;;;;;;;4.03;2.97;;;5.90;98.40;;;;;;5035626;28;21075;-67
2021/04/23 00:48:34;;;;;;;6.37;3.53;;;5.90;99.20;;;;;;5040954;28;20541;-67
2021/04/23 00:51:03;;;;;;;5.73;3.60;;;5.90;99.90;;;;;;5049548;28;20618;-67
2021/04/23 00:53:31;;;;;;;6.23;2.90;;;5.90;99.90;;;;;;5045236;28;20489;-67
2021/04/23 00:55:59;;;;;;;6.53;3.93;;;5.90;99.90;;;;;;5053274;28;20439;-67
2021/04/23 00:58:28;;;;;;;8.47;3.80;;;5.80;99.90;;;;;;5052228;28;20475;-67
2021/04/23 01:01:07;;;;;;;5.80;3.17;;;5.90;99.90;;;;;;5052954;28;20972;-67
2021/04/23 01:03:34;;;;;;;4.77;3.37;;;5.70;99.90;;;;;;5033467;28;20427;-67
2021/04/23 01:06:06;;;;;;;9.47;3.50;;;5.70;99.90;;;;;;5050914;28;20431;-67
2021/04/23 01:08:32;;;;;;;4.73;2.97;;;5.50;99.90;;;;;;5051974;28;20440;-67
2021/04/23 01:11:00;;;;;;;7.50;3.03;;;5.50;99.90;;;;;;5050028;28;20539;-67
2021/04/23 01:13:31;;;;;;;5.37;3.60;;;5.50;99.90;;;;;;5052414;28;20232;-67
2021/04/23 01:16:02;;;;;;;3.80;3.30;;;5.50;99.90;;;;;;5044001;28;20443;-67
2021/04/23 01:18:28;;;;;;;6.37;3.60;;;5.40;99.90;;;;;;5041025;28;20972;-67
2021/04/23 01:21:16;;;;;;;6.23;3.97;;;5.40;99.90;;;;;;5045637;28;20542;-67
2021/04/23 01:23:44;;;;;;;7.40;3.73;;;5.30;99.90;;;;;;5052874;28;20428;-67
2021/04/23 01:26:11;;;;;;;6.80;3.80;;;5.30;99.90;;;;;;5039090;28;20926;-67
2021/04/23 01:28:38;;;;;;;4.17;3.03;;;5.20;99.90;;;;;;5053290;28;20436;-67
2021/04/23 01:31:05;;;;;;;6.33;4.20;;;5.10;99.90;;;;;;5046108;28;20471;-67
2021/04/23 01:33:33;;;;;;;5.80;4.20;;;5.00;99.90;;;;;;5052034;28;20444;-67
2021/04/23 01:35:59;;;;;;;9.33;4.20;;;5.00;99.90;;;;;;5053179;28;20843;-67
2021/04/23 01:38:24;;;;;;;7.23;4.10;;;5.10;99.90;;;;;;5051047;28;20464;-67
2021/04/23 01:40:50;;;;;;;3.50;3.17;;;5.20;99.90;;;;;;5052399;28;20224;-67
2021/04/23 01:43:17;;;;;;;5.07;3.33;;;5.30;99.90;;;;;;5052219;28;20643;-67
2021/04/23 01:45:43;;;;;;;6.57;3.73;;;5.40;99.90;;;;;;5051843;28;20177;-67
2021/04/23 01:48:12;;;;;;;7.10;4.20;;;5.40;99.90;;;;;;5038050;28;20455;-67
2021/04/23 01:50:38;;;;;;;6.57;3.43;;;5.30;99.90;;;;;;5052166;28;20464;-67
2021/04/23 01:53:03;;;;;;;5.40;3.13;;;5.10;99.90;;;;;;5051676;28;20440;-67
2021/04/23 01:55:29;;;;;;;7.43;3.20;;;5.20;99.90;;;;;;5050119;28;20435;-67
2021/04/23 01:57:55;;;;;;;4.83;3.03;;;5.20;99.90;;;;;;5052234;28;20202;-67
2021/04/23 02:00:30;;;;;;;9.27;4.63;;;5.20;99.90;;;;;;5051998;28;20178;-67
2021/04/23 02:03:00;;;;;;;8.20;3.47;;;5.20;99.90;;;;;;5046447;28;20643;-67
2021/04/23 02:05:26;;;;;;;5.27;3.10;;;5.20;99.90;;;;;;5045219;28;20427;-67
2021/04/23 02:07:53;;;;;;;5.37;3.50;;;5.10;99.90;;;;;;5051778;28;20747;-67
2021/04/23 02:10:24;;;;;;;9.40;4.30;;;5.10;99.90;;;;;;5050920;28;20474;-67
2021/04/23 02:12:49;;;;;;;5.83;3.40;;;5.00;99.90;;;;;;5048390;28;20778;-67
2021/04/23 02:15:16;;;;;;;7.80;3.30;;;5.10;99.90;;;;;;5034505;28;20503;-67
2021/04/23 02:17:43;;;;;;;3.80;3.40;;;5.00;99.90;;;;;;5042185;28;20202;-67
2021/04/23 02:20:16;;;;;;;6.27;3.37;;;5.00;99.90;;;;;;5049865;28;20435;-67
2021/04/23 02:22:43;;;;;;;7.60;4.50;;;4.80;99.90;;;;;;5046871;28;20946;-67
2021/04/23 02:25:10;;;;;;;6.53;3.20;;;4.70;99.90;;;;;;5047967;28;20490;-67
2021/04/23 02:27:36;;;;;;;7.13;3.60;;;4.70;99.90;;;;;;5049087;28;20443;-67
2021/04/23 02:30:09;;;;;;;9.97;4.40;;;4.80;99.90;;;;;;5050652;28;20435;-67
2021/04/23 02:32:35;;;;;;;6.33;4.17;;;4.80;99.90;;;;;;5051596;28;20213;-67
2021/04/23 02:35:01;;;;;;;6.40;4.00;;;4.80;99.90;;;;;;5047630;28;20522;-67
2021/04/23 02:37:27;;;;;;;5.30;4.73;;;4.80;99.90;;;;;;5048182;28;20728;-67
2021/04/23 02:39:52;;;;;;;11.10;6.67;;;4.80;99.90;;;;;;5048916;28;20423;-67
2021/04/23 02:42:18;;;;;;;10.27;6.90;;;4.80;99.90;;;;;;5051544;28;20201;-67
2021/04/23 02:44:44;;;;;;;10.90;5.53;;;4.80;99.90;;;;;;5051493;28;20181;-67
2021/04/23 02:47:10;;;;;;;6.30;5.00;;;4.80;99.90;;;;;;5050632;28;20440;-67
2021/04/23 02:49:35;;;;;;;8.73;4.53;;;4.80;99.90;;;;;;5050842;28;20181;-67
2021/04/23 02:52:01;;;;;;;9.77;4.67;;;4.80;99.90;;;;;;5049400;28;20220;-67
2021/04/23 02:54:27;;;;;;;6.60;3.67;;;4.70;99.90;;;;;;5050745;28;20194;-67
2021/04/23 02:56:52;;;;;;;8.20;4.13;;;4.70;99.90;;;;;;5048098;28;20234;-67
2021/04/23 02:59:18;;;;;;;6.30;4.47;;;4.70;99.90;;;;;;5042776;28;20260;-67
2021/04/23 03:01:47;;;;;;;5.23;3.90;;;4.70;99.90;;;;;;5050627;28;20202;-67
2021/04/23 03:04:13;;;;;;;5.93;4.03;;;4.70;99.90;;;;;;5024391;28;20428;-67
2021/04/23 03:06:39;;;;;;;9.30;4.03;;;4.60;99.90;;;;;;5050805;28;20523;-67
2021/04/23 03:09:07;;;;;;;8.30;4.73;;;4.40;99.90;;;;;;5051189;28;20193;-67
2021/04/23 03:11:34;;;;;;;7.97;3.93;;;4.40;99.90;;;;;;5051496;28;20248;-67
2021/04/23 03:14:01;;;;;;;10.57;4.30;;;4.40;99.90;;;;;;5035724;28;20775;-67
2021/04/23 03:16:28;;;;;;;4.83;2.93;;;4.40;99.90;;;;;;5029080;28;20440;-67
2021/04/23 03:18:54;;;;;;;4.60;3.30;;;4.40;99.90;;;;;;5039283;28;20436;-67
2021/04/23 03:21:25;;;;;;;9.50;3.40;;;4.40;99.90;;;;;;5050238;28;20454;-67
2021/04/23 03:23:51;;;;;;;5.57;3.47;;;4.30;99.90;;;;;;5049363;28;20432;-67
2021/04/23 03:26:18;;;;;;;5.27;3.67;;;4.20;99.90;;;;;;5050659;28;20921;-67
2021/04/23 03:28:44;;;;;;;5.03;3.30;;;4.20;99.90;;;;;;5050901;28;20614;-67
2021/04/23 03:31:11;;;;;;;7.43;3.67;;;4.30;99.90;;;;;;5050674;28;20552;-67
2021/04/23 03:33:37;;;;;;;11.00;4.07;;;4.30;99.90;;;;;;5051002;28;20428;-67
2021/04/23 03:36:04;;;;;;;10.27;3.87;;;4.20;99.90;;;;;;5049913;28;20964;-67
2021/04/23 03:38:33;;;;;;;9.90;4.03;;;4.20;99.90;;;;;;5050667;28;21235;-67
2021/04/23 03:41:03;;;;;;;4.90;3.83;;;4.10;99.90;;;;;;5046081;28;20463;-67
2021/04/23 03:43:29;;;;;;;7.93;3.73;;;4.10;99.90;;;;;;5050539;28;20833;-67
2021/04/23 03:45:54;;;;;;;5.63;3.77;;;4.10;99.90;;;;;;5043031;28;20437;-67
2021/04/23 03:48:20;;;;;;;6.97;3.73;;;4.20;99.90;;;;;;5050495;28;20178;-67
2021/04/23 03:50:47;;;;;;;7.43;3.93;;;4.20;99.90;;;;;;5050016;28;20225;-67
2021/04/23 03:53:14;;;;;;;9.67;4.60;;;4.20;99.90;;;;;;5050655;28;20428;-67
2021/04/23 03:55:44;;;;;;;13.67;5.90;;;4.10;99.90;;;;;;5049830;28;20471;-67
2021/04/23 03:58:11;;;;;;;10.03;4.60;;;4.00;99.90;;;;;;5042158;28;20448;-67
2021/04/23 04:00:41;;;;;;;7.30;4.07;;;4.00;99.90;;;;;;5039582;28;20824;-67
2021/04/23 04:03:07;;;;;;;7.50;4.60;;;4.00;99.90;;;;;;5050431;28;20990;-67
2021/04/23 04:05:34;;;;;;;5.77;3.73;;;4.10;99.90;;;;;;5050401;28;20447;-67
2021/04/23 04:07:59;;;;;;;9.33;3.90;;;4.00;99.90;;;;;;5050076;28;20490;-67
2021/04/23 04:10:26;;;;;;;11.03;4.13;;;4.10;99.90;;;;;;5049941;28;20432;-67
2021/04/23 04:12:51;;;;;;;9.07;4.40;;;4.10;99.90;;;;;;5050491;28;20201;-67
2021/04/23 04:15:17;;;;;;;4.90;3.13;;;3.90;99.90;;;;;;5048379;28;20897;-67
2021/04/23 04:17:44;;;;;;;5.83;4.40;;;3.80;99.90;;;;;;5044824;28;20561;-67
2021/04/23 04:20:12;;;;;;;9.13;4.23;;;3.80;99.90;;;;;;5047340;28;20432;-67
2021/04/23 04:22:39;;;;;;;9.40;4.37;;;3.80;99.90;;;;;;5049376;28;20428;-67
2021/04/23 04:25:07;;;;;;;8.20;3.40;;;3.90;99.90;;;;;;5045607;28;20431;-67
2021/04/23 04:27:33;;;;;;;5.77;4.20;;;3.90;99.90;;;;;;5049790;28;20566;-67
2021/04/23 04:29:58;;;;;;;9.50;4.40;;;3.90;99.90;;;;;;5037415;28;21025;-67
2021/04/23 04:32:24;;;;;;;6.73;5.40;;;3.90;99.90;;;;;;5049953;28;20193;-67
2021/04/23 04:34:50;;;;;;;15.23;8.20;;;3.80;99.90;;;;;;5045372;28;20174;-67
2021/04/23 04:37:15;;;;;;;16.57;8.07;;;3.70;99.90;;;;;;5050099;28;20713;-67
2021/04/23 04:39:41;;;;;;;7.17;4.83;;;3.60;99.90;;;;;;5049888;28;20458;-67
2021/04/23 04:42:06;;;;;;;6.67;4.10;;;3.70;99.90;;;;;;5049746;28;20202;-67
2021/04/23 04:44:34;;;;;;;10.63;3.67;;;3.70;99.90;;;;;;5050239;28;20186;-67
2021/04/23 04:47:00;;;;;;;13.50;5.50;;;3.80;99.90;;;;;;5049806;28;20329;-67
2021/04/23 04:49:25;;;;;;;7.87;4.63;;;4.00;99.90;;;;;;5049836;28;20857;-67
2021/04/23 04:51:51;;;;;;;5.97;4.80;;;4.10;99.90;;;;;;5049815;28;20463;-67
2021/04/23 04:54:16;;;;;;;5.30;4.17;;;4.10;99.90;;;;;;5049866;28;20691;-67
2021/04/23 04:56:42;;;;;;;10.47;6.30;;;4.20;99.90;;;;;;5049897;28;20177;-67
2021/04/23 04:59:08;;;;;;;10.60;4.77;;;4.30;99.90;;;;;;5049944;28;20185;-67
2021/04/23 05:01:33;;;;;;;13.47;4.63;;;4.30;99.90;;;;;;5049820;28;20216;-67
2021/04/23 05:03:59;;;;;;;5.20;4.67;;;4.30;99.90;;;;;;5049767;28;20170;-67
2021/04/23 05:06:24;;;;;;;7.83;4.90;;;4.50;99.90;;;;;;5051896;28;20658;-67
2021/04/23 05:08:50;;;;;;;9.20;4.50;;;4.60;99.90;;;;;;5053023;28;20209;-67
2021/04/23 05:11:17;;;;;;;8.33;5.07;;;4.80;99.90;;;;;;5052454;28;21512;-67
2021/04/23 05:13:43;;;;;;;14.77;7.90;;;4.90;99.90;;;;;;5049165;28;20235;-67
2021/04/23 05:16:08;;;;;;;10.83;5.53;;;5.00;99.90;;;;;;5053027;28;20431;-67
2021/04/23 05:18:34;;;;;;;14.93;5.87;;;5.10;99.90;;;;;;5048936;28;20185;-67
2021/04/23 05:20:59;;;;;;;11.63;5.93;;;5.20;99.90;;;;;;5052470;28;20205;-67
2021/04/23 05:23:25;;;;;;;7.47;4.83;;;5.30;99.90;;;;;;5050597;28;20193;-67
2021/04/23 05:25:51;;;;;;;7.20;4.97;;;5.30;99.90;;;;;;5053161;28;20178;-67
2021/04/23 05:28:16;;;;;;;8.40;4.23;;;5.40;99.90;;;;;;5052367;28;20197;-67
2021/04/23 05:30:42;;;;;;;10.73;5.70;;;5.50;99.90;;;;;;5052788;28;20225;-67
2021/04/23 05:33:09;;;;;;;10.27;5.90;;;5.70;99.90;;;;;;5048661;28;20253;-67
2021/04/23 05:35:35;;;;;;;6.03;4.47;;;5.90;99.90;;;;;;5052560;28;20173;-67
2021/04/23 05:38:01;;;;;;;9.47;6.13;;;6.10;99.90;;;;;;5047746;28;20429;-67
2021/04/23 05:40:45;;;;;;;7.33;4.47;;;6.30;99.90;;;;;;5050240;28;20462;-67
2021/04/23 05:43:11;;;;;;;14.10;5.60;;;6.50;99.90;;;;;;5045986;28;20227;-67
2021/04/23 05:45:40;;;;;;;8.60;5.67;;;6.70;99.90;;;;;;5052227;28;20432;-67
2021/04/23 05:48:07;;;;;;;9.33;5.37;;;7.00;99.90;;;;;;5052579;28;20456;-67
2021/04/23 05:50:33;;;;;;;6.57;5.30;;;7.20;99.90;;;;;;5041052;28;20459;-67
2021/04/23 05:52:59;;;;;;;5.83;4.87;;;7.30;99.90;;;;;;5051686;28;21012;-67
2021/04/23 05:55:25;;;;;;;8.90;6.57;;;7.40;99.90;;;;;;5029996;28;20516;-67
2021/04/23 05:57:55;;;;;;;12.00;6.70;;;7.50;99.90;;;;;;5039715;28;20571;-67
2021/04/23 06:00:23;;;;;;;12.93;6.23;;;7.60;99.90;;;;;;5048433;28;20433;-67
2021/04/23 06:02:50;;;;;;;10.03;5.77;;;7.80;99.90;;;;;;5039830;28;20443;-67
2021/04/23 06:05:16;;;;;;;7.60;5.13;;;8.00;99.90;;;;;;5043995;28;20439;-68
2021/04/23 06:07:42;;;;;;;14.03;6.83;;;8.20;99.90;;;;;;5052503;28;20559;-67
2021/04/23 06:10:10;;;;;;;7.73;5.53;;;8.40;99.90;;;;;;5050964;28;20519;-67
2021/04/23 06:12:36;;;;;;;9.70;6.17;;;8.70;99.90;;;;;;5046726;28;20312;-67
2021/04/23 06:15:03;;;;;;;9.63;5.00;;;8.80;99.90;;;;;;5052342;28;20538;-67
2021/04/23 06:17:29;;;;;;;12.30;5.43;;;9.00;99.90;;;;;;5050819;28;20184;-66
2021/04/23 06:19:54;;;;;;;12.33;5.27;;;9.10;99.90;;;;;;5049242;28;20526;-67
2021/04/23 06:22:20;;;;;;;14.57;6.67;;;9.40;99.90;;;;;;5052032;28;20760;-70
2021/04/23 06:24:45;;;;;;;9.70;6.13;;;9.50;99.90;;;;;;5049685;28;20204;-67
2021/04/23 06:27:11;;;;;;;10.83;6.40;;;9.60;99.40;;;;;;5051799;28;20683;-68
2021/04/23 06:29:36;;;;;;;16.93;7.00;;;9.70;98.40;;;;;;5046381;28;20541;-68
2021/04/23 06:32:02;;;;;;;12.93;9.90;;;9.80;97.90;;;;;;5042628;28;20280;-68
2021/04/23 06:34:28;;;;;;;25.50;7.60;;;10.20;97.60;;;;;;5049374;28;20177;-68
2021/04/23 06:36:54;;;;;;;7.50;6.30;;;10.50;96.00;;;;;;5032763;28;20184;-68
2021/04/23 06:39:20;;;;;;;9.83;6.37;;;10.70;95.40;;;;;;5047261;28;20232;-67
2021/04/23 06:41:46;;;;;;;8.20;5.43;;;10.90;94.90;;;;;;5044844;28;20471;-68
2021/04/23 06:44:13;;;;;;;8.10;5.60;;;11.20;93.90;;;;;;5051236;28;20442;-68
2021/04/23 06:46:39;;;;;;;8.93;5.27;;;11.30;92.50;;;;;;5051452;28;20801;-68
2021/04/23 06:49:04;;;;;;;10.60;5.77;;;11.40;92.40;;;;;;5050759;28;20427;-68
2021/04/23 06:51:30;;;;;;;7.70;4.80;;;11.60;91.50;;;;;;5048988;28;20762;-68
2021/04/23 06:53:56;;;;;;;11.50;6.50;;;11.70;91.50;;;;;;5051629;28;20188;-67
2021/04/23 06:56:21;;;;;;;11.33;5.80;;;12.10;91.20;;;;;;5051345;28;20431;-67
2021/04/23 06:58:47;;;;;;;10.03;6.10;;;12.30;87.00;;;;;;5050872;28;20185;-68
2021/04/23 07:01:13;;;;;;;10.87;5.00;;;12.20;85.70;;;;;;5037583;28;20209;-67
2021/04/23 07:03:41;;;;;;;9.63;5.20;;;12.00;86.20;;;;;;5045724;28;20174;-67
2021/04/23 07:06:07;;;;;;;9.43;5.07;;;11.90;85.70;;;;;;5043083;28;20532;-67
2021/04/23 07:08:33;;;;;;;9.63;4.93;;;11.90;85.30;;;;;;5050670;28;20579;-67
2021/04/23 07:10:58;;;;;;;11.63;5.10;;;12.00;85.50;;;;;;5050780;28;20906;-72
2021/04/23 07:13:24;;;;;;;7.20;4.77;;;12.20;83.30;;;;;;5045801;28;20177;-67
2021/04/23 07:15:49;;;;;;;6.57;5.50;;;12.30;83.90;;;;;;5060122;28;20181;-68
2021/04/23 07:18:15;;;;;;;7.10;5.17;;;12.40;81.50;;;;;;5041298;28;20193;-68
2021/04/23 07:20:41;;;;;;;9.90;5.50;;;12.60;82.50;;;;;;5045233;28;20620;-68
2021/04/23 07:23:06;;;;;;;13.23;7.60;;;12.70;80.70;;;;;;5050672;28;20216;-68
2021/04/23 07:25:33;;;;;;;13.43;5.17;;;12.80;79.50;;;;;;5049916;28;20192;-68
2021/04/23 07:27:59;;;;;;;8.37;5.50;;;13.00;80.50;;;;;;5050588;28;20280;-67
2021/04/23 07:30:27;;;;;;;8.33;5.30;;;13.10;79.00;;;;;;5049705;28;20420;-68
2021/04/23 07:32:54;;;;;;;9.87;6.50;;;13.10;78.90;;;;;;5050737;28;20435;-67
2021/04/23 07:35:20;;;;;;;10.90;6.20;;;13.00;80.20;;;;;;5050066;28;20428;-68
2021/04/23 07:37:45;;;;;;;10.53;6.80;;;13.10;79.20;;;;;;5049590;28;20510;-70
2021/04/23 07:40:14;;;;;;;8.53;5.90;;;13.30;78.20;;;;;;5047996;28;20174;-68
2021/04/23 07:42:39;;;;;;;9.37;6.80;;;13.40;77.20;;;;;;5048237;28;20192;-67
2021/04/23 07:45:06;;;;;;;15.03;6.63;;;13.40;77.40;;;;;;5050025;28;20440;-67
2021/04/23 07:47:32;;;;;;;11.33;5.83;;;13.70;76.90;;;;;;5050489;28;20293;-67
2021/04/23 07:49:58;;;;;;;7.73;6.03;;;13.70;74.60;;;;;;5050665;28;20859;-67
2021/04/23 07:52:23;;;;;;;11.23;6.83;;;13.90;75.60;;;;;;5050650;28;20264;-68
2021/04/23 07:54:49;;;;;;;10.80;8.30;;;13.90;73.10;;;;;;5050575;28;20181;-67
2021/04/23 07:57:14;;;;;;;10.10;5.43;;;13.80;74.00;;;;;;5050845;28;20181;-67
2021/04/23 07:59:40;;;;;;;10.40;6.30;;;13.90;72.10;;;;;;5049902;28;20181;-67
2021/04/23 08:02:08;;;;;;;15.53;8.00;;;13.90;71.00;;;;;;5050093;28;20189;-67
2021/04/23 08:04:38;;;;;;;9.53;6.00;;;14.00;71.00;;;;;;5050480;28;20496;-67
2021/04/23 08:07:05;;;;;;;7.67;5.30;;;14.30;69.70;;;;;;5050373;28;20459;-66
2021/04/23 08:09:31;;;;;;;11.47;6.87;;;14.60;68.50;;;;;;5050016;28;20440;-67
2021/04/23 08:11:57;;;;;;;10.20;6.03;;;14.90;67.50;;;;;;5050305;28;20527;-67
2021/04/23 08:14:22;;;;;;;9.87;7.00;;;15.20;66.50;;;;;;5049813;28;20812;-67
2021/04/23 08:16:48;;;;;;;10.17;7.40;;;15.50;65.70;;;;;;5050312;28;20503;-67
2021/04/23 08:19:13;;;;;;;9.80;6.83;;;15.80;63.70;;;;;;5049853;28;20177;-67
2021/04/23 08:21:39;;;;;;;10.03;7.40;;;16.00;61.80;;;;;;5050008;28;20201;-67
2021/04/23 08:24:05;;;;;;;8.33;6.00;;;16.10;60.90;;;;;;5049925;28;20619;-67
2021/04/23 08:26:30;;;;;;;12.03;7.03;;;16.20;60.60;;;;;;5048091;28;20253;-67
2021/04/23 08:28:56;;;;;;;14.83;7.50;;;16.50;59.60;;;;;;5049749;28;20814;-67
2021/04/23 08:31:21;;;;;;;13.17;7.97;;;16.40;59.00;;;;;;5050335;28;20777;-67
2021/04/23 08:33:48;;;;;;;7.93;6.90;;;16.50;59.50;;;;;;5050194;28;20264;-67
2021/04/23 08:36:13;;;;;;;9.63;7.67;;;16.80;59.80;;;;;;5049726;28;20178;-67
2021/04/23 08:38:39;;;;;;;8.33;7.53;;;16.90;57.30;;;;;;5050106;28;20455;-66
2021/04/23 08:41:05;;;;;;;9.10;7.47;;;16.80;57.00;;;;;;5051388;28;20738;-67
2021/04/23 08:43:30;;;;;;;8.43;7.53;;;16.80;56.80;;;;;;5053968;28;20182;-67
2021/04/23 08:45:56;;;;;;;16.50;7.27;;;17.00;57.30;;;;;;5053895;28;20253;-67
2021/04/23 08:48:22;;;;;;;10.70;8.63;;;17.10;56.60;;;;;;5053594;28;20210;-66
2021/04/23 08:50:49;;;;;;;10.80;8.33;;;17.10;55.30;;;;;;5053221;28;20197;-67
2021/04/23 08:53:16;;;;;;;13.53;7.67;;;17.10;55.40;;;;;;5053655;28;20428;-67
2021/04/23 08:55:42;;;;;;;10.37;6.70;;;17.40;55.10;;;;;;5053881;28;20428;-67
2021/04/23 08:58:08;;;;;;;11.70;8.83;;;17.40;55.20;;;;;;5053420;28;20800;-67
2021/04/23 09:00:34;;;;;;;9.83;7.80;;;17.50;54.40;;;;;;5035412;28;20662;-66
2021/04/23 09:02:59;;;;;;;11.63;9.40;;;17.70;54.20;;;;;;5052339;28;20573;-66
2021/04/23 09:05:25;;;;;;;12.80;7.77;;;17.90;54.90;;;;;;5053338;28;20264;-67
2021/04/23 09:07:59;;;;;;;13.20;8.90;;;18.30;53.70;;;;;;5053385;28;20676;-67
2021/04/23 09:10:25;;;;;;;8.97;7.30;;;18.60;52.20;;;;;;5053023;28;20200;-67
2021/04/23 09:13:12;;;;;;;9.10;6.83;;;19.00;51.60;;;;;;5053408;28;20428;-67
2021/04/23 09:15:40;;;;;;;8.10;6.13;;;19.00;50.80;;;;;;5038774;28;20424;-67
2021/04/23 09:18:25;;;;;;;9.50;6.73;;;19.20;49.50;;;;;;5053528;28;20439;-66
2021/04/23 09:21:02;;;;;;;10.53;7.73;;;19.60;49.00;;;;;;5052824;28;20448;-67
2021/04/23 09:23:27;;;;;;;8.40;5.80;;;19.90;47.90;;;;;;5052573;28;20822;-68
2021/04/23 09:25:55;;;;;;;9.33;6.73;;;20.50;47.20;;;;;;5053339;28;20721;-67
2021/04/23 09:28:35;;;;;;;10.60;6.50;;;20.50;46.90;;;;;;5052940;28;20221;-67
2021/04/23 09:31:24;;;;;;;10.47;8.47;;;20.50;45.50;;;;;;5052705;28;20550;-67
2021/04/23 09:33:56;;;;;;;11.40;7.03;;;20.20;45.20;;;;;;5039648;28;20791;-67
2021/04/23 09:36:33;;;;;;;12.57;6.97;;;21.30;44.60;;;;;;5052673;28;20428;-68
2021/04/23 09:39:09;;;;;;;14.70;7.23;;;22.50;45.60;;;;;;5052761;28;20427;-67
2021/04/23 09:41:36;;;;;;;9.23;6.60;;;22.60;42.70;;;;;;5037397;28;20450;-67
2021/04/23 09:44:02;;;;;;;12.23;8.13;;;22.60;46.90;;;;;;5052922;28;20833;-66
2021/04/23 09:46:38;;;;;;;11.40;8.00;;;23.00;47.60;;;;;;5052660;28;20451;-67
2021/04/23 09:49:20;;;;;;;17.27;7.90;;;23.60;47.40;;;;;;5052553;28;20201;-68
2021/04/23 09:51:46;;;;;;;9.10;7.07;;;24.30;65.30;;;;;;5051173;28;20460;-68
2021/04/23 09:54:30;;;;;;;9.07;7.40;;;23.80;61.40;;;;;;5049624;28;20436;-67
2021/04/23 09:56:57;;;;;;;7.80;7.00;;;23.40;61.90;;;;;;5048411;28;20435;-68
2021/04/23 09:59:28;;;;;;;9.10;7.70;;;23.30;61.50;;;;;;5051787;28;21111;-68
2021/04/23 10:01:58;;;;;;;10.70;7.07;;;23.90;62.30;;;;;;5051417;28;20524;-68
2021/04/23 10:04:31;;;;;;;12.20;8.70;;;24.80;61.30;;;;;;5052276;28;20937;-67
2021/04/23 10:07:15;;;;;;;12.03;9.50;;;25.00;59.60;;;;;;5047951;28;20860;-67
2021/04/23 10:09:47;;;;;;;12.80;8.53;;;26.20;55.20;;;;;;5033097;28;20419;-68
2021/04/23 10:12:26;;;;;;;10.20;7.07;;;26.10;53.30;;;;;;5048026;28;20452;-67
2021/04/23 10:15:16;;;;;;;8.63;6.83;;;26.30;52.80;;;;;;5051994;28;20420;-67
2021/04/23 10:17:44;;;;;;;9.60;8.53;;;26.50;50.40;;;;;;5032404;28;20511;-67
2021/04/23 10:20:12;;;;;;;11.80;7.00;;;26.30;50.50;;;;;;5050941;28;20431;-67
2021/04/23 10:22:37;;;;;;;10.30;7.43;;;27.50;32.70;;;;;;5052164;28;20482;-66
2021/04/23 10:25:05;;;;;;;8.47;7.57;;;28.20;34.30;;;;;;5051377;28;20941;-66
2021/04/23 10:27:33;;;;;;;12.63;8.83;;;28.70;34.60;;;;;;5051857;28;20177;-67
2021/04/23 10:30:06;;;;;;;8.30;7.40;;;28.10;30.90;;;;;;5051393;28;20432;-67
2021/04/23 10:32:33;;;;;;;9.83;7.67;;;28.20;30.10;;;;;;5050221;28;20529;-66
2021/04/23 10:34:59;;;;;;;9.93;7.80;;;28.50;30.00;;;;;;5051534;28;20436;-66
2021/04/23 10:37:25;;;;;;;8.87;7.40;;;29.00;30.00;;;;;;5051246;28;20460;-66
2021/04/23 10:39:52;;;;;;;9.43;7.60;;;29.40;29.50;;;;;;5050524;28;20184;-66
2021/04/23 10:42:41;;;;;;;9.30;7.20;;;30.20;29.00;;;;;;5051015;28;20478;-66
2021/04/23 10:45:30;;;;;;;9.93;7.40;;;28.80;28.10;;;;;;5050738;28;20428;-65
2021/04/23 10:47:57;;;;;;;13.83;7.77;;;29.50;28.20;;;;;;5051202;28;20443;-69
2021/04/23 10:50:26;;;;;;;8.40;7.60;;;29.10;29.00;;;;;;5050538;28;20743;-66
2021/04/23 10:52:59;;;;;;;10.17;7.60;;;29.20;29.10;;;;;;5051052;28;20600;-66
2021/04/23 10:55:51;;;;;;;7.00;6.30;;;29.50;28.90;;;;;;5050382;28;20424;-66
2021/04/23 10:58:34;;;;;;;7.93;7.10;;;30.00;28.10;;;;;;5050019;28;20468;-64
2021/04/23 11:01:15;;;;;;;8.57;7.67;;;30.60;27.80;;;;;;5050971;28;20535;-67
2021/04/23 11:03:45;;;;;;;10.50;8.87;;;30.30;27.70;;;;;;5051217;28;20436;-67
2021/04/23 11:06:13;;;;;;;16.03;9.90;;;29.30;27.90;;;;;;5050448;28;20443;-67
2021/04/23 11:08:59;;;;;;;10.47;8.23;;;29.60;28.60;;;;;;5050983;28;20432;-67
2021/04/23 11:11:25;;;;;;;9.33;6.57;;;28.70;28.00;;;;;;5042266;28;20496;-66
2021/04/23 11:13:52;;;;;;;6.77;6.17;;;28.90;27.60;;;;;;5049623;28;20444;-67
2021/04/23 11:16:24;;;;;;;11.07;6.70;;;27.80;28.00;;;;;;5050257;28;20436;-66
2021/04/23 11:19:20;;;;;;;8.57;6.93;;;27.90;28.10;;;;;;5050685;28;20456;-65
2021/04/23 11:21:47;;;;;;;8.53;6.93;;;27.90;27.70;;;;;;5036702;28;20462;-66
2021/04/23 11:24:16;;;;;;;8.70;6.60;;;27.70;28.30;;;;;;5050671;28;20432;-66
2021/04/23 11:27:04;;;;;;;8.87;7.10;;;27.90;28.00;;;;;;5051075;28;20432;-66
2021/04/23 11:29:37;;;;;;;11.40;8.03;;;28.90;28.00;;;;;;5049413;28;20988;-67
2021/04/23 11:32:10;;;;;;;12.50;9.00;;;29.60;26.80;;;;;;5050621;28;20452;-67
2021/04/23 11:34:45;;;;;;;8.90;7.57;;;31.00;27.40;;;;;;5033418;28;21011;-66
2021/04/23 11:37:14;;;;;;;11.30;8.10;;;30.00;27.20;;;;;;5040404;28;20543;-67
2021/04/23 11:39:44;;;;;;;11.10;8.60;;;29.30;27.90;;;;;;5049912;28;20488;-67
2021/04/23 11:42:12;;;;;;;8.60;7.80;;;31.30;27.70;;;;;;5050058;28;20824;-67
2021/04/23 11:44:56;;;;;;;7.87;7.17;;;32.40;26.80;;;;;;5050483;28;20455;-66
2021/04/23 11:47:30;;;;;;;9.13;6.83;;;33.70;25.20;;;;;;5049696;28;20964;-65
2021/04/23 11:50:08;;;;;;;7.77;6.30;;;33.10;24.10;;;;;;5049793;28;20438;-66
2021/04/23 11:52:34;;;;;;;6.07;5.20;;;31.10;24.40;;;;;;5045893;28;20451;-72
2021/04/23 11:55:11;;;;;;;8.77;6.00;;;30.70;24.20;;;;;;5049244;28;20968;-66
2021/04/23 11:57:37;;;;;;;7.97;7.20;;;31.30;25.20;;;;;;5042927;28;20463;-75
2021/04/23 12:00:07;;;;;;;8.33;7.00;;;31.40;25.50;;;;;;5049377;28;20823;-65
2021/04/23 12:02:42;;;;;;;8.10;6.70;;;32.30;25.70;;;;;;5047660;28;20202;-73
2021/04/23 12:05:26;;;;;;;7.77;7.00;;;32.60;24.50;;;;;;5038076;28;20433;-66
2021/04/23 12:07:53;;;;;;;10.23;6.00;;;34.00;25.00;;;;;;5035830;28;20506;-66
2021/04/23 12:10:21;;;;;;;12.07;7.90;;;34.20;25.00;;;;;;5049966;28;20929;-66
2021/04/23 12:12:47;;;;;;;9.03;7.33;;;34.70;24.00;;;;;;5050171;28;20471;-66
2021/04/23 12:15:20;;;;;;;8.60;7.80;;;34.20;24.10;;;;;;5051576;28;20863;-66
2021/04/23 12:17:45;;;;;;;10.30;7.57;;;31.20;24.70;;;;;;5056616;28;20670;-66
2021/04/23 12:20:20;;;;;;;8.73;6.60;;;31.20;25.30;;;;;;5056541;28;20427;-66
2021/04/23 12:22:46;;;;;;;9.30;6.80;;;32.30;25.00;;;;;;5052404;28;20251;-66
2021/04/23 12:25:31;;;;;;;7.67;6.33;;;33.20;24.40;;;;;;5056768;28;20424;-67
2021/04/23 12:28:20;;;;;;;5.97;5.47;;;33.90;23.30;;;;;;5056836;28;20427;-66
2021/04/23 12:30:48;;;;;;;7.27;6.53;;;35.20;22.60;;;;;;5051312;28;20783;-66
2021/04/23 12:33:14;;;;;;;8.73;6.97;;;34.10;22.80;;;;;;5056426;28;20790;-66
2021/04/23 12:35:42;;;;;;;8.23;7.43;;;34.70;23.70;;;;;;5056579;28;20423;-66
2021/04/23 12:38:11;;;;;;;10.17;7.10;;;33.50;23.90;;;;;;5056516;28;20447;-67
2021/04/23 12:40:45;;;;;;;8.50;7.27;;;33.90;24.00;;;;;;5056036;28;20448;-66
2021/04/23 12:43:20;;;;;;;7.70;7.00;;;34.60;23.90;;;;;;5056211;28;20528;-66
2021/04/23 12:45:55;;;;;;;7.40;6.00;;;33.70;23.20;;;;;;5042685;28;20427;-66
2021/04/23 12:48:23;;;;;;;9.90;6.37;;;34.30;22.90;;;;;;5056523;28;20431;-66
2021/04/23 12:50:52;;;;;;;7.63;6.93;;;33.70;23.20;;;;;;5056269;28;20459;-66
2021/04/23 12:53:23;;;;;;;7.00;6.40;;;34.40;23.00;;;;;;5056325;28;20497;-66
2021/04/23 12:55:49;;;;;;;8.40;6.90;;;34.70;23.00;;;;;;5056446;28;20988;-66